Time;durP1;ratioP1;P1;durP2;ratioP2;P2;SDS_P1;SDS_P2;PMS_P1;PMS_P2;Temp;Humidity;BMP_temperature;BMP_pressure;BME280_temperature;BME280_humidity;BME280_pressure;Samples;Min_cycle;Max_cycle;Signal;HPM_P1;HPM_P2
2021/09/01 00:01:07;;;;;;;5.57;3.92;;;;;;;15.88;81.77;99027.28;5091678;28;20044;-94
2021/09/01 00:03:33;;;;;;;6.00;4.25;;;;;;;15.79;81.43;99016.00;5091233;28;20041;-93
2021/09/01 00:05:59;;;;;;;6.30;3.90;;;;;;;15.71;82.11;99004.75;5082794;28;20048;-95
2021/09/01 00:08:27;;;;;;;6.55;4.07;;;;;;;15.61;81.84;99003.38;5088950;28;20085;-93
2021/09/01 00:10:53;;;;;;;5.50;3.83;;;;;;;15.78;81.13;99024.13;5080706;28;20063;-92
2021/09/01 00:13:21;;;;;;;6.70;4.03;;;;;;;15.87;81.04;99036.25;5093269;28;20036;-95
2021/09/01 00:15:47;;;;;;;5.68;3.67;;;;;;;15.95;81.05;99036.78;5080699;28;20048;-95
2021/09/01 00:18:13;;;;;;;5.82;3.80;;;;;;;15.82;80.64;99018.53;5085105;28;20101;-96
2021/09/01 00:20:39;;;;;;;5.90;3.97;;;;;;;15.74;82.04;99025.19;5080162;28;20064;-93
2021/09/01 00:23:05;;;;;;;7.65;3.92;;;;;;;15.67;81.48;99013.81;5080225;28;20490;-94
2021/09/01 00:25:32;;;;;;;5.53;3.92;;;;;;;15.69;82.09;99027.19;5088689;28;20020;-95
2021/09/01 00:27:58;;;;;;;8.40;3.88;;;;;;;15.69;81.10;99011.94;5084252;28;20041;-95
2021/09/01 00:30:24;;;;;;;7.35;3.83;;;;;;;15.71;80.80;99003.84;5081622;28;20075;-94
2021/09/01 00:32:50;;;;;;;6.65;4.00;;;;;;;15.91;80.44;99022.63;5081007;28;20048;-95
2021/09/01 00:35:16;;;;;;;6.90;3.33;;;;;;;15.86;80.03;99027.34;5097045;28;20062;-94
2021/09/01 00:37:43;;;;;;;8.68;3.72;;;;;;;15.91;80.06;99014.56;5097745;28;20238;-95
2021/09/01 00:40:11;;;;;;;6.03;3.90;;;;;;;15.88;79.41;99001.31;5082394;28;20044;-95
2021/09/01 00:42:38;;;;;;;6.75;3.72;;;;;;;15.93;80.52;99020.75;5080261;28;20056;-95
2021/09/01 00:45:06;;;;;;;6.72;3.53;;;;;;;15.81;80.65;99014.13;5079397;28;20115;-96
2021/09/01 00:47:34;;;;;;;6.25;4.22;;;;;;;15.67;82.04;99016.50;5082624;28;20040;-94
2021/09/01 00:50:03;;;;;;;6.38;3.78;;;;;;;15.60;82.88;99031.13;5085944;28;20071;-95
2021/09/01 00:52:30;;;;;;;6.45;3.60;;;;;;;15.49;82.78;99025.38;5088631;28;20050;-96
2021/09/01 00:54:57;;;;;;;5.95;3.72;;;;;;;15.46;83.82;99022.81;5092131;28;20489;-94
2021/09/01 00:57:23;;;;;;;6.10;4.05;;;;;;;15.33;84.57;99009.94;5081397;28;20055;-95
2021/09/01 00:59:50;;;;;;;6.45;3.80;;;;;;;15.25;85.16;99012.06;5081469;28;20048;-96
2021/09/01 01:02:17;;;;;;;6.93;3.65;;;;;;;15.34;84.93;99033.13;5090100;28;20044;-95
2021/09/01 01:04:45;;;;;;;5.25;3.63;;;;;;;15.14;84.81;99012.53;5093270;28;20068;-95
2021/09/01 01:07:11;;;;;;;6.60;4.28;;;;;;;14.97;86.14;99025.75;5081074;28;20047;-94
2021/09/01 01:09:39;;;;;;;8.30;4.85;;;;;;;14.81;87.40;99038.00;5082806;28;20120;-94
2021/09/01 01:12:09;;;;;;;8.10;4.80;;;;;;;14.78;87.80;99044.34;5077361;28;20037;-95
2021/09/01 01:14:36;;;;;;;10.60;4.88;;;;;;;14.69;87.86;99040.22;5077245;28;20576;-94
2021/09/01 01:17:07;;;;;;;8.60;5.32;;;;;;;14.74;87.74;99043.59;5095421;28;20047;-94
2021/09/01 01:19:34;;;;;;;7.85;4.85;;;;;;;14.78;87.32;99036.31;5081933;28;20041;-94
2021/09/01 01:22:00;;;;;;;7.13;4.43;;;;;;;14.80;86.70;99034.44;5085190;28;20042;-96
2021/09/01 01:24:46;;;;;;;7.63;4.45;;;;;;;15.08;87.25;99066.34;5086696;28;20100;-95
2021/09/01 01:27:22;;;;;;;6.78;4.10;;;;;;;14.81;87.64;99036.19;5061421;28;20072;-96
2021/09/01 01:29:49;;;;;;;6.32;4.15;;;;;;;14.76;86.82;99035.50;5081234;28;20049;-96
2021/09/01 01:32:17;;;;;;;6.00;4.10;;;;;;;14.79;86.80;99051.47;5079666;28;20044;-95
2021/09/01 01:34:42;;;;;;;7.00;4.45;;;;;;;14.70;87.36;99036.63;5080486;28;20071;-96
2021/09/01 01:37:12;;;;;;;6.32;4.18;;;;;;;14.75;87.19;99039.13;5081211;28;20386;-95
2021/09/01 01:39:39;;;;;;;6.18;4.30;;;;;;;14.69;87.75;99036.69;5090492;28;20048;-93
2021/09/01 01:42:05;;;;;;;6.93;5.20;;;;;;;14.84;87.84;99070.00;5090378;28;20051;-95
2021/09/01 01:44:33;;;;;;;8.05;4.90;;;;;;;14.55;88.34;99051.50;5081667;28;20040;-94
2021/09/01 01:46:59;;;;;;;6.75;4.40;;;;;;;14.41;88.61;99037.72;5078844;28;20076;-94
2021/09/01 01:49:27;;;;;;;7.35;4.47;;;;;;;14.53;88.10;99045.28;5079362;28;20052;-94
2021/09/01 01:51:53;;;;;;;5.70;4.17;;;;;;;14.57;87.97;99046.06;5095447;28;20049;-95
2021/09/01 01:57:10;;;;;;;5.78;4.00;;;;;;;14.69;88.28;99072.34;5081254;28;20044;-95
2021/09/01 01:59:38;;;;;;;6.60;4.07;;;;;;;14.48;88.94;99049.94;5084394;28;20041;-95
2021/09/01 02:02:04;;;;;;;7.63;4.25;;;;;;;14.41;88.95;99043.06;5094903;28;20130;-96
2021/09/01 02:04:31;;;;;;;7.28;4.47;;;;;;;14.42;89.25;99051.97;5095908;28;20064;-95
2021/09/01 02:06:59;;;;;;;6.85;4.63;;;;;;;14.46;89.15;99065.16;5083984;28;20041;-94
2021/09/01 02:09:25;;;;;;;9.95;4.88;;;;;;;14.31;90.06;99049.69;5096465;28;20048;-95
2021/09/01 02:11:53;;;;;;;9.25;4.60;;;;;;;14.22;90.07;99045.56;5094862;28;20123;-94
2021/09/01 02:14:22;;;;;;;6.28;4.90;;;;;;;14.17;90.68;99048.41;5082727;28;20064;-96
2021/09/01 02:16:49;;;;;;;6.10;4.50;;;;;;;14.17;90.91;99047.56;5081823;28;20040;-95
2021/09/01 02:19:16;;;;;;;11.27;5.00;;;;;;;14.16;90.63;99041.34;5083411;28;20040;-95
2021/09/01 02:21:42;;;;;;;6.38;4.40;;;;;;;14.12;90.60;99037.03;5092515;28;20090;-95
2021/09/01 02:24:08;;;;;;;10.30;5.43;;;;;;;14.26;91.00;99057.03;5078618;28;20045;-95
2021/09/01 02:26:36;;;;;;;10.75;5.57;;;;;;;14.22;91.91;99066.97;5082900;28;20567;-95
2021/09/01 02:29:02;;;;;;;9.07;5.10;;;;;;;14.18;90.74;99047.50;5081266;28;20079;-94
2021/09/01 02:31:28;;;;;;;10.63;5.47;;;;;;;14.21;91.04;99051.00;5086548;28;20079;-96
2021/09/01 02:33:58;;;;;;;8.60;5.00;;;;;;;14.25;90.93;99065.97;5082759;28;20136;-94
2021/09/01 02:36:24;;;;;;;10.07;5.90;;;;;;;14.29;91.01;99071.19;5082606;28;20037;-94
2021/09/01 02:38:51;;;;;;;7.28;4.95;;;;;;;14.08;90.74;99035.41;5083274;28;20036;-95
2021/09/01 02:41:17;;;;;;;7.38;5.22;;;;;;;14.09;90.76;99036.25;5083240;28;20068;-95
2021/09/01 02:43:43;;;;;;;7.85;4.97;;;;;;;14.12;90.81;99063.78;5089198;28;20061;-95
2021/09/01 02:46:12;;;;;;;7.72;5.40;;;;;;;14.11;90.71;99061.16;5089280;28;20107;-95
2021/09/01 02:48:38;;;;;;;8.88;5.00;;;;;;;14.07;90.78;99057.69;5102447;28;20481;-96
2021/09/01 02:51:05;;;;;;;7.80;5.35;;;;;;;14.09;90.76;99065.69;5091597;28;20044;-95
2021/09/01 02:53:33;;;;;;;7.88;4.68;;;;;;;14.01;90.41;99052.59;5089948;28;20067;-96
2021/09/01 02:56:00;;;;;;;8.43;4.88;;;;;;;14.04;90.51;99065.84;5083448;28;20041;-96
2021/09/01 02:58:26;;;;;;;6.97;4.40;;;;;;;14.02;90.46;99064.16;5076861;28;20040;-95
2021/09/01 03:00:52;;;;;;;6.88;4.63;;;;;;;13.99;90.19;99067.81;5095495;28;20097;-95
2021/09/01 03:03:18;;;;;;;7.45;4.75;;;;;;;13.98;90.69;99076.75;5104177;28;20036;-96
2021/09/01 03:05:44;;;;;;;7.30;4.78;;;;;;;13.82;91.18;99068.44;5089938;28;20044;-96
2021/09/01 03:08:11;;;;;;;7.97;4.50;;;;;;;13.77;91.15;99062.38;5081205;28;20132;-94
2021/09/01 03:10:38;;;;;;;9.60;4.60;;;;;;;13.89;91.29;99074.44;5084747;28;20087;-94
2021/09/01 03:13:04;;;;;;;6.30;4.22;;;;;;;13.75;90.87;99059.75;5084285;28;20131;-95
2021/09/01 03:15:30;;;;;;;7.93;4.88;;;;;;;13.73;91.02;99061.59;5102497;28;20131;-94
2021/09/01 03:17:57;;;;;;;8.65;5.03;;;;;;;13.69;91.70;99067.97;5096337;28;20051;-96
2021/09/01 03:20:26;;;;;;;6.88;4.70;;;;;;;13.60;91.49;99057.63;5082663;28;20079;-95
2021/09/01 03:22:53;;;;;;;;;;;;;;;13.90;91.81;99085.06;5082672;28;20108;-95
2021/09/01 03:25:20;;;;;;;8.73;4.53;;;;;;;13.84;91.89;99085.28;5081987;28;20297;-96
2021/09/01 03:27:46;;;;;;;8.60;4.68;;;;;;;13.74;91.15;99057.13;5086970;28;20108;-95
2021/09/01 03:30:16;;;;;;;8.68;4.90;;;;;;;13.87;91.15;99073.59;5090429;28;20051;-94
2021/09/01 03:32:43;;;;;;;6.57;4.65;;;;;;;13.81;90.93;99055.09;5081904;28;20059;-96
2021/09/01 03:35:09;;;;;;;6.32;4.32;;;;;;;13.85;90.70;99072.78;5082172;28;20036;-96
2021/09/01 03:37:38;;;;;;;9.18;4.97;;;;;;;13.71;91.42;99057.25;5087879;28;20493;-96
2021/09/01 03:40:05;;;;;;;7.55;4.85;;;;;;;13.80;91.50;99085.44;5085050;28;20052;-94
2021/09/01 03:42:33;;;;;;;6.93;5.20;;;;;;;13.66;91.72;99084.13;5083063;28;20049;-96
2021/09/01 03:44:59;;;;;;;7.55;5.20;;;;;;;13.71;91.73;99110.69;5085230;28;20573;-96
2021/09/01 03:47:25;;;;;;;9.07;4.93;;;;;;;13.63;91.69;99105.59;5093472;28;20067;-94
2021/09/01 03:49:51;;;;;;;8.30;5.60;;;;;;;13.64;91.75;99112.72;5082493;28;20044;-95
2021/09/01 03:52:17;;;;;;;10.85;5.63;;;;;;;13.70;92.86;99117.81;5084191;28;20049;-95
2021/09/01 03:54:46;;;;;;;9.35;5.03;;;;;;;13.80;92.04;99146.94;5064776;28;20048;-95
2021/09/01 03:57:13;;;;;;;7.93;4.90;;;;;;;13.84;91.87;99162.81;5070944;28;20044;-95
2021/09/01 03:59:43;;;;;;;7.07;5.20;;;;;;;13.59;91.42;99127.13;5064938;28;20049;-95
2021/09/01 04:02:11;;;;;;;8.07;5.32;;;;;;;13.77;92.07;99171.97;5079408;28;20071;-94
2021/09/01 04:04:37;;;;;;;8.18;5.47;;;;;;;13.54;92.23;99135.31;5074746;28;20045;-95
2021/09/01 04:07:06;;;;;;;8.05;5.20;;;;;;;13.55;92.57;99143.28;5061422;28;20052;-95
2021/09/01 04:09:33;;;;;;;11.23;5.40;;;;;;;13.63;92.36;99156.38;5076112;28;20041;-94
2021/09/01 04:12:01;;;;;;;8.13;5.40;;;;;;;13.49;92.79;99135.47;5078544;28;20044;-95
2021/09/01 04:14:27;;;;;;;10.18;6.18;;;;;;;13.56;93.11;99133.47;5071857;28;20045;-95
2021/09/01 04:16:57;;;;;;;11.35;6.20;;;;;;;13.54;93.40;99140.66;5059848;28;20505;-96
2021/09/01 04:19:23;;;;;;;8.55;5.78;;;;;;;13.53;93.58;99144.22;5048506;28;20048;-96
2021/09/01 04:21:49;;;;;;;9.43;6.40;;;;;;;13.47;93.81;99136.44;5067021;28;20078;-93
2021/09/01 04:24:16;;;;;;;8.70;5.38;;;;;;;13.69;93.70;99156.19;5071216;28;20047;-95
2021/09/01 04:26:42;;;;;;;10.95;6.40;;;;;;;13.73;93.34;99155.16;5058226;28;20044;-93
2021/09/01 04:29:08;;;;;;;9.40;6.43;;;;;;;13.67;92.89;99154.50;5058380;28;20041;-93
2021/09/01 04:31:37;;;;;;;11.55;7.25;;;;;;;13.44;93.18;99129.38;5059377;28;20401;-94
2021/09/01 04:34:04;;;;;;;10.23;7.20;;;;;;;13.49;93.40;99158.66;5057020;28;20050;-94
2021/09/01 04:36:30;;;;;;;14.23;7.78;;;;;;;13.53;93.71;99174.53;5056246;28;20075;-93
2021/09/01 04:38:56;;;;;;;12.70;8.65;;;;;;;13.41;94.12;99172.25;5059785;28;20037;-93
2021/09/01 04:41:23;;;;;;;15.63;10.68;;;;;;;13.14;94.65;99144.56;5057727;28;20076;-94
2021/09/01 04:43:49;;;;;;;18.58;11.38;;;;;;;13.29;95.01;99169.94;5069163;28;20397;-94
2021/09/01 04:46:15;;;;;;;21.77;13.85;;;;;;;13.04;95.66;99144.00;5059542;28;20037;-94
2021/09/01 04:48:41;;;;;;;22.70;13.85;;;;;;;12.90;96.43;99140.88;5068658;28;20056;-92
2021/09/01 04:51:08;;;;;;;20.65;12.73;;;;;;;13.11;96.56;99172.25;5061058;28;20120;-92
2021/09/01 04:53:36;;;;;;;16.58;10.13;;;;;;;13.05;96.41;99160.88;5062462;28;20124;-96
2021/09/01 04:56:03;;;;;;;15.55;9.95;;;;;;;13.12;95.96;99158.00;5057630;28;20048;-94
2021/09/01 04:58:29;;;;;;;12.02;8.13;;;;;;;13.11;95.35;99142.00;5056763;28;20048;-93
2021/09/01 05:00:55;;;;;;;13.25;8.30;;;;;;;13.08;95.21;99134.09;5055392;28;20478;-94
2021/09/01 05:03:20;;;;;;;12.65;7.93;;;;;;;13.14;95.13;99144.56;5056507;28;20037;-95
2021/09/01 05:05:46;;;;;;;11.43;7.78;;;;;;;13.16;94.83;99140.06;5060582;28;20048;-96
2021/09/01 05:08:14;;;;;;;12.68;7.68;;;;;;;13.25;94.54;99145.13;5057840;28;20090;-94
2021/09/01 05:10:40;;;;;;;11.40;6.82;;;;;;;13.18;93.93;99108.84;5060078;28;20049;-95
2021/09/01 05:13:06;;;;;;;10.48;6.82;;;;;;;13.37;93.67;99124.31;5061230;28;20501;-95
2021/09/01 05:15:32;;;;;;;9.80;6.20;;;;;;;13.47;92.47;99126.63;5063647;28;20036;-93
2021/09/01 05:17:58;;;;;;;11.90;6.15;;;;;;;13.70;91.68;99135.66;5060371;28;20075;-95
2021/09/01 05:20:25;;;;;;;8.32;5.80;;;;;;;13.80;91.02;99130.88;5059186;28;20132;-94
2021/09/01 05:22:58;;;;;;;9.10;5.68;;;;;;;13.82;90.43;99119.22;5076772;28;20044;-94
2021/09/01 05:25:30;;;;;;;11.75;6.22;;;;;;;13.72;90.13;99105.28;5069454;28;20052;-94
2021/09/01 05:27:56;;;;;;;10.02;6.43;;;;;;;13.72;90.30;99107.94;5057845;28;20463;-95
2021/09/01 05:30:22;;;;;;;9.35;5.90;;;;;;;13.77;89.96;99100.66;5058831;28;20137;-94
2021/09/01 05:32:49;;;;;;;8.77;5.43;;;;;;;13.94;89.75;99110.78;5055495;28;20057;-95
2021/09/01 05:35:16;;;;;;;8.43;5.55;;;;;;;14.02;88.54;99099.78;5057439;28;20132;-95
2021/09/01 05:37:42;;;;;;;10.13;5.53;;;;;;;14.29;87.80;99113.09;5055973;28;20486;-96
2021/09/01 05:40:11;;;;;;;8.57;5.60;;;;;;;14.27;87.88;99102.47;5069460;28;20098;-95
2021/09/01 05:42:39;;;;;;;7.07;4.57;;;;;;;14.44;86.65;99096.47;5068428;28;20044;-93
2021/09/01 05:45:07;;;;;;;6.78;4.72;;;;;;;14.55;85.83;99096.09;5062081;28;20044;-94
2021/09/01 05:47:33;;;;;;;8.73;5.13;;;;;;;14.64;85.66;99092.19;5075287;28;20044;-95
2021/09/01 05:50:01;;;;;;;8.20;4.68;;;;;;;14.82;84.85;99104.00;5066066;28;20048;-94
2021/09/01 05:52:27;;;;;;;7.13;4.82;;;;;;;14.88;85.25;99114.47;5071530;28;20033;-91
2021/09/01 05:54:56;;;;;;;8.63;4.80;;;;;;;14.90;84.61;99108.13;5065488;28;20051;-93
2021/09/01 05:57:30;;;;;;;;;;;;;;;14.97;85.28;99114.13;5061114;28;20037;-94
2021/09/01 06:00:05;;;;;;;7.72;4.70;;;;;;;14.93;84.87;99083.91;5060087;28;19959;-92
2021/09/01 06:02:37;;;;;;;6.90;4.80;;;;;;;15.07;84.44;99077.09;5077764;28;20048;-94
2021/09/01 06:05:04;;;;;;;8.50;5.72;;;;;;;15.27;84.32;99092.41;5057198;28;20049;-95
2021/09/01 06:07:32;;;;;;;6.50;4.53;;;;;;;15.35;83.73;99079.53;5063036;28;20072;-94
2021/09/01 06:10:00;;;;;;;6.72;4.40;;;;;;;15.49;83.42;99070.94;5072220;28;20417;-94
2021/09/01 06:12:28;;;;;;;7.07;4.65;;;;;;;15.81;82.57;99089.22;5071524;28;20045;-94
2021/09/01 06:14:54;;;;;;;9.27;4.57;;;;;;;15.91;82.39;99073.59;5064652;28;20384;-93
2021/09/01 06:17:25;;;;;;;6.90;4.22;;;;;;;16.11;80.61;99071.81;5059281;28;20068;-93
2021/09/01 06:19:51;;;;;;;6.90;4.38;;;;;;;16.25;79.12;99071.22;5062462;28;20502;-94
2021/09/01 06:22:17;;;;;;;6.43;4.13;;;;;;;16.51;78.80;99087.00;5065311;28;20041;-94
2021/09/01 06:24:43;;;;;;;7.75;4.72;;;;;;;16.63;77.18;99088.22;5065548;28;20053;-94
2021/09/01 06:27:09;;;;;;;7.05;4.85;;;;;;;16.67;77.15;99080.91;5062840;28;20063;-94
2021/09/01 06:29:37;;;;;;;9.52;4.90;;;;;;;16.77;77.20;99077.72;5070784;28;20093;-94
2021/09/01 06:32:06;;;;;;;8.02;4.82;;;;;;;16.91;76.38;99085.13;5080325;28;20385;-93
2021/09/01 06:34:42;;;;;;;6.75;4.30;;;;;;;17.01;76.06;99073.00;5062999;28;20041;-93
2021/09/01 06:37:08;;;;;;;6.80;4.25;;;;;;;17.19;76.31;99067.69;5070390;28;20075;-96
2021/09/01 06:39:34;;;;;;;7.20;4.15;;;;;;;17.42;74.33;99075.47;5059613;28;20060;-94
2021/09/01 06:42:00;;;;;;;6.68;4.60;;;;;;;17.61;73.67;99075.44;5058810;28;20119;-95
2021/09/01 06:44:34;;;;;;;7.93;4.60;;;;;;;17.81;73.28;99084.28;5060091;28;20064;-94
2021/09/01 06:47:01;;;;;;;7.55;4.32;;;;;;;17.85;71.91;99057.19;5062915;28;20076;-93
2021/09/01 06:49:26;;;;;;;5.82;4.20;;;;;;;18.05;71.77;99076.78;5073878;28;20041;-95
2021/09/01 06:51:55;;;;;;;7.97;3.90;;;;;;;18.03;71.68;99081.38;5067448;28;20045;-93
2021/09/01 06:54:21;;;;;;;6.45;3.92;;;;;;;18.30;71.23;99084.41;5060385;28;20060;-92
2021/09/01 06:57:12;;;;;;;5.45;4.10;;;;;;;18.38;71.28;99068.72;5065689;28;20041;-95
2021/09/01 06:59:40;;;;;;;5.45;3.97;;;;;;;18.69;70.33;99080.50;5060989;28;20564;-94
2021/09/01 07:02:16;;;;;;;4.95;3.33;;;;;;;19.04;67.53;99089.34;5073183;28;20074;-95
2021/09/01 07:04:45;;;;;;;5.35;3.15;;;;;;;18.88;66.79;99065.06;5074882;28;20041;-94
2021/09/01 07:07:19;;;;;;;5.28;3.20;;;;;;;19.02;65.88;99066.16;5063758;28;20041;-95
2021/09/01 07:09:44;;;;;;;4.63;3.20;;;;;;;19.38;63.31;99092.78;5067872;28;20037;-94
2021/09/01 07:12:10;;;;;;;5.45;3.10;;;;;;;19.57;62.33;99110.63;5068361;28;20045;-94
2021/09/01 07:14:40;;;;;;;11.27;5.82;;;;;;;18.81;70.09;99111.31;5063325;28;20052;-94
2021/09/01 07:17:06;;;;;;;8.68;6.07;;;;;;;18.90;70.86;99113.50;5065140;28;20059;-95
2021/09/01 07:19:33;;;;;;;9.88;7.40;;;;;;;18.71;71.66;99101.97;5070004;28;20464;-95
2021/09/01 07:21:59;;;;;;;15.70;8.25;;;;;;;18.83;71.08;99125.59;5065756;28;20037;-93
2021/09/01 07:24:27;;;;;;;11.90;8.73;;;;;;;18.30;72.45;99114.03;5064104;28;20048;-95
2021/09/01 07:26:54;;;;;;;13.55;8.45;;;;;;;18.34;74.01;99137.13;5068139;28;20024;-94
2021/09/01 07:29:23;;;;;;;12.00;7.65;;;;;;;18.78;72.31;99146.50;5062644;28;20109;-93
2021/09/01 07:31:49;;;;;;;12.93;8.38;;;;;;;18.56;71.49;99115.31;5060897;28;20048;-94
2021/09/01 07:34:15;;;;;;;11.00;7.50;;;;;;;18.46;71.78;99114.94;5063439;28;20609;-96
2021/09/01 07:36:41;;;;;;;13.02;7.47;;;;;;;18.77;72.79;99148.31;5067373;28;20060;-94
2021/09/01 07:39:07;;;;;;;11.05;7.00;;;;;;;18.68;71.30;99125.44;5068565;28;20540;-93
2021/09/01 07:41:37;;;;;;;10.73;7.30;;;;;;;18.79;70.70;99146.44;5070964;28;20052;-93
2021/09/01 07:44:07;;;;;;;11.48;7.47;;;;;;;18.96;70.05;99120.38;5062691;28;20049;-95
2021/09/01 07:46:33;;;;;;;12.73;6.43;;;;;;;18.97;69.96;99127.50;5067351;28;20041;-93
2021/09/01 07:49:02;;;;;;;10.27;6.10;;;;;;;19.43;68.69;99149.16;5077923;28;20048;-94
2021/09/01 07:51:31;;;;;;;9.73;6.38;;;;;;;19.58;66.38;99118.63;5071912;28;20064;-93
2021/09/01 07:53:57;;;;;;;9.13;5.70;;;;;;;19.87;66.81;99126.84;5064278;28;20063;-93
2021/09/01 07:56:23;;;;;;;11.55;5.28;;;;;;;20.20;64.89;99137.44;5066155;28;20044;-92
2021/09/01 07:58:51;;;;;;;7.47;5.38;;;;;;;20.37;63.95;99130.16;5070903;28;20127;-93
2021/09/01 08:01:23;;;;;;;11.73;5.78;;;;;;;20.51;63.83;99120.25;5062704;28;20055;-93
2021/09/01 08:03:54;;;;;;;7.90;5.40;;;;;;;20.72;63.07;99139.66;5066111;28;20429;-94
2021/09/01 08:06:20;;;;;;;10.90;5.72;;;;;;;20.71;61.78;99124.41;5068386;28;20091;-94
2021/09/01 08:08:47;;;;;;;10.90;5.45;;;;;;;20.52;61.97;99153.53;5060819;28;20041;-95
2021/09/01 08:11:13;;;;;;;9.93;5.90;;;;;;;20.28;64.86;99155.91;5066156;28;20051;-93
2021/09/01 08:13:39;;;;;;;10.85;5.75;;;;;;;20.69;64.06;99171.44;5064505;28;20040;-92
2021/09/01 08:16:08;;;;;;;8.57;5.60;;;;;;;20.79;63.01;99139.28;5066648;28;20045;-95
2021/09/01 08:18:34;;;;;;;11.30;5.00;;;;;;;20.57;61.95;99143.31;5065935;28;20058;-95
2021/09/01 08:21:00;;;;;;;8.18;5.20;;;;;;;21.09;62.10;99168.91;5063325;28;20348;-92
2021/09/01 08:23:25;;;;;;;8.77;5.03;;;;;;;21.39;61.13;99166.06;5062939;28;20037;-93
2021/09/01 08:25:51;;;;;;;8.90;5.00;;;;;;;21.66;60.49;99157.09;5060495;28;20040;-94
2021/09/01 08:28:17;;;;;;;6.72;4.60;;;;;;;21.92;58.90;99153.53;5062750;28;20049;-93
2021/09/01 08:30:43;;;;;;;6.32;4.40;;;;;;;22.17;58.06;99157.28;5060986;28;20041;-92
2021/09/01 08:33:13;;;;;;;6.05;4.53;;;;;;;22.35;56.73;99155.16;5064084;28;20044;-92
2021/09/01 08:35:39;;;;;;;5.88;4.22;;;;;;;22.54;55.23;99147.47;5071669;28;20059;-94
2021/09/01 08:38:10;;;;;;;7.65;4.30;;;;;;;22.37;54.78;99131.53;5066991;28;20051;-94
2021/09/01 08:40:40;;;;;;;4.53;3.53;;;;;;;22.51;55.54;99125.13;5057749;28;20045;-94
2021/09/01 08:43:09;;;;;;;5.93;3.50;;;;;;;22.69;54.35;99120.28;5071646;28;20131;-92
2021/09/01 08:45:35;;;;;;;5.22;3.20;;;;;;;23.08;53.20;99137.41;5058674;28;20033;-92
2021/09/01 08:48:02;;;;;;;5.53;3.28;;;;;;;22.82;52.19;99156.38;5061323;28;20140;-94
2021/09/01 08:50:30;;;;;;;5.05;2.70;;;;;;;22.97;51.65;99140.84;5059567;28;20048;-93
2021/09/01 08:52:59;;;;;;;4.50;3.15;;;;;;;22.74;51.27;99123.50;5056861;28;20033;-93
2021/09/01 08:55:35;;;;;;;6.10;3.05;;;;;;;22.30;53.74;99131.09;5061989;28;20032;-94
2021/09/01 08:58:01;;;;;;;5.38;2.70;;;;;;;22.46;51.41;99124.59;5060997;28;20048;-94
2021/09/01 09:00:27;;;;;;;4.35;2.80;;;;;;;22.53;52.65;99140.34;5057941;28;20059;-94
2021/09/01 09:02:55;;;;;;;4.55;3.08;;;;;;;22.72;52.87;99152.56;5057861;28;20140;-93
2021/09/01 09:05:36;;;;;;;5.28;2.90;;;;;;;22.44;50.88;99119.28;5062239;28;20119;-93
2021/09/01 09:08:33;;;;;;;4.93;3.10;;;;;;;22.88;50.21;99161.34;5060544;28;20128;-93
2021/09/01 09:11:00;;;;;;;4.38;3.00;;;;;;;22.87;50.33;99156.91;5051684;28;20037;-93
2021/09/01 09:13:30;;;;;;;4.43;3.17;;;;;;;22.98;49.18;99140.72;5060593;28;20037;-94
2021/09/01 09:16:06;;;;;;;5.22;3.25;;;;;;;22.87;49.99;99124.34;5060567;28;20119;-95
2021/09/01 09:18:32;;;;;;;4.80;2.90;;;;;;;23.24;48.83;99143.41;5059597;28;20052;-95
2021/09/01 09:21:15;;;;;;;7.00;3.05;;;;;;;22.96;49.81;99142.66;5061242;28;20106;-95
2021/09/01 09:23:41;;;;;;;5.30;2.92;;;;;;;22.83;50.33;99143.69;5061743;28;20498;-95
2021/09/01 09:26:23;;;;;;;4.50;2.97;;;;;;;23.30;50.24;99133.97;5060879;28;20140;-95
2021/09/01 09:29:08;;;;;;;6.35;2.95;;;;;;;23.52;48.59;99154.94;5062609;28;20057;-95
2021/09/01 09:31:38;;;;;;;4.38;2.50;;;;;;;23.66;47.89;99115.91;5062436;28;20071;-94
2021/09/01 09:34:05;;;;;;;4.45;2.67;;;;;;;23.41;45.99;99163.03;5058738;28;20112;-95
2021/09/01 09:36:33;;;;;;;3.30;2.40;;;;;;;23.01;47.28;99136.06;5057069;28;20037;-94
2021/09/01 09:38:59;;;;;;;3.38;2.33;;;;;;;23.30;46.43;99155.69;5064112;28;20067;-94
2021/09/01 09:41:28;;;;;;;5.75;2.60;;;;;;;23.80;46.35;99156.50;5061314;28;20041;-93
2021/09/01 09:43:55;;;;;;;4.28;2.70;;;;;;;23.89;46.04;99142.22;5059722;28;20064;-94
2021/09/01 09:46:22;;;;;;;5.28;2.72;;;;;;;23.84;45.60;99141.69;5058697;28;20072;-93
2021/09/01 09:48:50;;;;;;;6.15;2.70;;;;;;;23.65;45.60;99153.03;5061642;28;20055;-94
2021/09/01 09:51:17;;;;;;;4.30;2.80;;;;;;;23.62;46.17;99139.72;5060989;28;20445;-93
2021/09/01 09:53:49;;;;;;;3.88;2.47;;;;;;;23.85;44.50;99161.56;5056876;28;20783;-92
2021/09/01 09:56:18;;;;;;;4.50;2.60;;;;;;;24.15;44.93;99166.53;5057321;28;20037;-93
2021/09/01 09:58:46;;;;;;;4.88;2.80;;;;;;;24.07;45.59;99136.34;5060172;28;20049;-92
2021/09/01 10:01:14;;;;;;;3.63;2.40;;;;;;;24.26;43.72;99147.53;5056921;28;20052;-96
2021/09/01 10:03:40;;;;;;;3.83;2.47;;;;;;;24.35;43.15;99156.81;5060407;28;20398;-92
2021/09/01 10:06:08;;;;;;;4.20;2.40;;;;;;;23.92;44.00;99135.66;5058869;28;20123;-92
2021/09/01 10:08:37;;;;;;;3.10;2.25;;;;;;;24.33;43.34;99153.34;5065555;28;20056;-93
2021/09/01 10:11:06;;;;;;;4.90;2.45;;;;;;;24.41;43.03;99137.31;5061836;28;20077;-93
2021/09/01 10:13:34;;;;;;;3.28;2.15;;;;;;;24.54;42.31;99135.41;5058229;28;20048;-93
2021/09/01 10:16:10;;;;;;;4.10;2.57;;;;;;;24.78;42.62;99129.84;5058614;28;20041;-93
2021/09/01 10:18:38;;;;;;;4.00;2.30;;;;;;;24.82;42.13;99138.66;5060772;28;20499;-94
2021/09/01 10:21:06;;;;;;;3.75;2.35;;;;;;;24.88;42.05;99138.16;5066644;28;20052;-94
2021/09/01 10:23:37;;;;;;;3.80;2.40;;;;;;;23.97;42.50;99149.78;5065870;28;20098;-94
2021/09/01 10:26:21;;;;;;;3.75;2.30;;;;;;;24.15;41.93;99144.78;5066030;28;20057;-92
2021/09/01 10:28:48;;;;;;;4.10;2.20;;;;;;;24.32;41.75;99146.19;5056110;28;20040;-93
2021/09/01 10:31:22;;;;;;;3.33;2.30;;;;;;;24.08;42.19;99146.25;5056961;28;20437;-94
2021/09/01 10:33:51;;;;;;;2.83;2.25;;;;;;;24.29;40.93;99130.13;5063362;28;20053;-92
2021/09/01 10:36:51;;;;;;;4.20;2.30;;;;;;;24.89;39.96;99163.50;5059370;28;20406;-94
2021/09/01 10:39:36;;;;;;;3.58;2.00;;;;;;;24.94;39.22;99148.53;5013859;28;20144;-91
2021/09/01 10:42:36;;;;;;;3.75;2.20;;;;;;;25.20;39.77;99167.38;5011435;28;20777;-95
2021/09/01 10:45:07;;;;;;;3.63;2.40;;;;;;;24.79;39.73;99161.53;5018751;28;20049;-95
2021/09/01 10:48:02;;;;;;;3.75;2.47;;;;;;;24.78;39.84;99159.78;5013441;28;20046;-93
2021/09/01 10:50:34;;;;;;;2.78;1.95;;;;;;;24.77;40.79;99155.34;5022076;28;20201;-95
2021/09/01 10:53:03;;;;;;;3.20;2.10;;;;;;;24.64;39.01;99151.88;5013934;28;20041;-94
2021/09/01 10:55:28;;;;;;;;;;;;;;;24.90;39.85;99166.09;5015469;28;20088;-95
2021/09/01 10:58:21;;;;;;;4.75;2.58;;;;;;;25.07;39.13;99147.53;5016788;28;19921;-93
2021/09/01 11:00:55;;;;;;;4.38;2.25;;;;;;;24.95;39.58;99123.06;5004312;28;20049;-92
2021/09/01 11:03:33;;;;;;;4.25;2.22;;;;;;;25.12;39.06;99135.31;5020267;28;20088;-94
2021/09/01 11:06:33;;;;;;;3.35;2.28;;;;;;;25.31;39.35;99152.88;5028231;28;20177;-96
2021/09/01 11:09:05;;;;;;;3.92;2.42;;;;;;;25.38;39.83;99137.78;5020683;28;20578;-93
2021/09/01 11:11:56;;;;;;;4.93;2.78;;;;;;;25.32;38.91;99141.00;5061563;28;20039;-95
2021/09/01 11:14:39;;;;;;;3.55;2.25;;;;;;;24.89;39.53;99118.09;5078933;28;20021;-95
2021/09/01 11:17:07;;;;;;;4.15;2.40;;;;;;;25.01;39.89;99108.09;5065745;28;20450;-96
2021/09/01 11:19:34;;;;;;;3.05;2.10;;;;;;;25.38;39.67;99129.63;5066773;28;20051;-94
2021/09/01 11:22:04;;;;;;;3.25;2.28;;;;;;;25.50;39.33;99106.78;5065431;28;20044;-94
2021/09/01 11:24:30;;;;;;;3.50;2.30;;;;;;;25.60;37.73;99118.66;5062960;28;20047;-94
2021/09/01 11:26:57;;;;;;;3.80;2.33;;;;;;;25.56;38.09;99124.50;5062898;28;20108;-95
2021/09/01 11:29:31;;;;;;;3.80;2.30;;;;;;;25.25;38.18;99099.81;5060921;28;20072;-94
2021/09/01 11:31:59;;;;;;;5.40;2.10;;;;;;;25.17;37.62;99105.84;5061754;28;20482;-95
2021/09/01 11:34:25;;;;;;;4.75;2.47;;;;;;;25.45;37.82;99117.22;5063077;28;20053;-94
2021/09/01 11:36:51;;;;;;;3.90;2.30;;;;;;;25.26;38.14;99100.66;5064773;28;20449;-93
2021/09/01 11:39:17;;;;;;;4.68;2.30;;;;;;;25.24;39.51;99108.09;5067343;28;20049;-94
2021/09/01 11:41:45;;;;;;;3.05;2.20;;;;;;;25.41;38.73;99118.47;5060217;28;20041;-92